createdAt,value
2018-10-17T00:02:19.140Z,15.30
2018-10-17T00:04:47.805Z,15.30
2018-10-17T00:07:16.657Z,14.43
2018-10-17T00:09:45.350Z,14.97
2018-10-17T00:12:14.053Z,14.97
2018-10-17T00:14:42.758Z,15.40
2018-10-17T00:17:11.429Z,15.70
2018-10-17T00:19:40.095Z,15.77
2018-10-17T00:22:09.021Z,14.10
2018-10-17T00:24:37.687Z,16.23
2018-10-17T00:27:06.443Z,14.80
2018-10-17T00:29:35.080Z,14.37
2018-10-17T00:32:03.771Z,15.40
2018-10-17T00:34:32.418Z,15.73
2018-10-17T00:37:01.070Z,15.03
2018-10-17T00:39:29.709Z,15.43
2018-10-17T00:41:58.411Z,15.20
2018-10-17T00:44:27.097Z,15.00
2018-10-17T00:46:55.803Z,14.83
2018-10-17T00:49:24.478Z,14.70
2018-10-17T00:51:53.126Z,15.73
2018-10-17T00:54:21.801Z,15.37
2018-10-17T00:56:50.471Z,14.93
2018-10-17T00:59:19.113Z,15.37
2018-10-17T01:01:47.759Z,13.90
2018-10-17T01:04:16.415Z,15.33
2018-10-17T01:06:45.104Z,14.83
2018-10-17T01:09:14.593Z,15.80
2018-10-17T01:11:43.498Z,16.13
2018-10-17T01:14:12.218Z,16.20
2018-10-17T01:16:40.920Z,14.47
2018-10-17T01:19:09.701Z,15.00
2018-10-17T01:21:38.392Z,15.13
2018-10-17T01:24:07.026Z,13.80
2018-10-17T01:26:35.688Z,15.10
2018-10-17T01:29:04.439Z,15.57
2018-10-17T01:31:33.083Z,14.60
2018-10-17T01:34:01.732Z,15.27
2018-10-17T01:36:30.396Z,14.43
2018-10-17T01:38:59.090Z,15.83
2018-10-17T01:41:27.707Z,16.00
2018-10-17T01:43:56.339Z,15.10
2018-10-17T01:46:24.990Z,14.80
2018-10-17T01:48:53.712Z,13.90
2018-10-17T01:51:22.392Z,14.80
2018-10-17T01:53:51.006Z,15.43
2018-10-17T01:56:19.683Z,14.50
2018-10-17T01:58:48.294Z,14.90
2018-10-17T02:01:16.958Z,14.03
2018-10-17T02:03:45.620Z,14.30
2018-10-17T02:06:14.292Z,15.30
2018-10-17T02:08:42.934Z,15.30
2018-10-17T02:11:11.587Z,15.17
2018-10-17T02:13:40.228Z,15.07
2018-10-17T02:16:08.849Z,15.53
2018-10-17T02:18:37.508Z,16.90
2018-10-17T02:21:06.506Z,14.73
2018-10-17T02:23:35.120Z,15.10
2018-10-17T02:26:03.768Z,16.33
2018-10-17T02:28:32.381Z,15.50
2018-10-17T02:31:01.149Z,16.47
2018-10-17T02:33:29.732Z,14.97
2018-10-17T02:35:58.404Z,15.47
2018-10-17T02:38:27.056Z,15.73
2018-10-17T02:40:55.719Z,14.57
2018-10-17T02:43:24.426Z,15.90
2018-10-17T02:45:53.096Z,15.60
2018-10-17T02:48:21.719Z,15.30
2018-10-17T02:50:50.375Z,14.53
2018-10-17T02:53:19.133Z,16.30
2018-10-17T02:55:47.646Z,15.87
2018-10-17T02:58:16.291Z,16.40
2018-10-17T03:00:44.928Z,17.03
2018-10-17T03:03:13.601Z,16.30
2018-10-17T03:05:42.289Z,16.07
2018-10-17T03:08:10.958Z,14.13
2018-10-17T03:10:39.600Z,15.67
2018-10-17T03:13:08.288Z,14.43
2018-10-17T03:15:36.953Z,15.07
2018-10-17T03:18:05.661Z,17.13
2018-10-17T03:20:34.370Z,14.87
2018-10-17T03:23:03.217Z,16.47
2018-10-17T03:25:31.837Z,16.77
2018-10-17T03:28:00.529Z,15.37
2018-10-17T03:30:29.143Z,15.80
2018-10-17T03:32:57.834Z,16.03
2018-10-17T03:35:26.549Z,15.23
2018-10-17T03:37:55.213Z,16.33
2018-10-17T03:40:23.853Z,15.70
2018-10-17T03:42:52.554Z,16.33
2018-10-17T03:45:21.165Z,16.70
2018-10-17T03:47:49.788Z,15.80
2018-10-17T03:50:18.433Z,16.43
2018-10-17T03:52:47.069Z,16.43
2018-10-17T03:55:15.814Z,17.07
2018-10-17T03:57:44.395Z,15.27
2018-10-17T04:00:13.050Z,16.13
2018-10-17T04:02:41.695Z,15.13
2018-10-17T04:05:10.397Z,15.90
2018-10-17T04:07:39.052Z,16.37
2018-10-17T04:10:07.684Z,15.97
2018-10-17T04:12:36.335Z,17.10
2018-10-17T04:15:05.353Z,17.17
2018-10-17T04:17:34.036Z,15.47
2018-10-17T04:20:02.690Z,15.60
2018-10-17T04:22:31.394Z,16.10
2018-10-17T04:25:00.089Z,16.20
2018-10-17T04:27:28.723Z,16.30
2018-10-17T04:29:57.419Z,15.97
2018-10-17T04:32:26.069Z,16.47
2018-10-17T04:34:56.764Z,15.97
2018-10-17T04:37:25.376Z,15.50
2018-10-17T04:39:54.025Z,16.03
2018-10-17T04:42:22.653Z,17.30
2018-10-17T04:44:51.300Z,16.10
2018-10-17T04:47:20.018Z,15.53
2018-10-17T04:49:48.662Z,16.20
2018-10-17T04:52:17.308Z,17.20
2018-10-17T04:54:45.989Z,15.80
2018-10-17T04:57:14.620Z,16.93
2018-10-17T04:59:43.276Z,15.80
2018-10-17T05:02:11.904Z,17.53
2018-10-17T05:04:40.649Z,15.57
2018-10-17T05:07:09.252Z,16.13
2018-10-17T05:09:37.924Z,17.27
2018-10-17T05:12:06.613Z,15.90
2018-10-17T05:14:35.370Z,17.60
2018-10-17T05:17:04.108Z,18.10
2018-10-17T05:19:32.692Z,16.83
2018-10-17T05:22:01.349Z,17.37
2018-10-17T05:24:29.995Z,18.20
2018-10-17T05:26:58.672Z,16.90
2018-10-17T05:29:27.393Z,19.13
2018-10-17T05:31:56.072Z,17.90
2018-10-17T05:34:24.743Z,19.50
2018-10-17T05:36:53.431Z,18.43
2018-10-17T05:39:22.084Z,17.30
2018-10-17T05:41:50.721Z,17.70
2018-10-17T05:44:19.463Z,17.03
2018-10-17T05:46:48.095Z,19.20
2018-10-17T05:49:16.862Z,18.97
2018-10-17T05:51:45.490Z,18.53
2018-10-17T05:54:14.129Z,19.90
2018-10-17T05:56:42.804Z,21.40
2018-10-17T05:59:11.489Z,20.30
2018-10-17T06:01:40.116Z,19.77
2018-10-17T06:04:09.003Z,20.73
2018-10-17T06:06:37.759Z,21.20
2018-10-17T06:09:08.383Z,23.12
2018-10-17T06:11:37.036Z,20.30
2018-10-17T06:14:05.822Z,19.30
2018-10-17T06:16:34.484Z,19.07
2018-10-17T06:19:03.220Z,18.90
2018-10-17T06:21:31.827Z,19.40
2018-10-17T06:24:00.517Z,19.50
2018-10-17T06:26:29.163Z,20.00
2018-10-17T06:28:57.858Z,19.37
2018-10-17T06:31:26.864Z,21.70
2018-10-17T06:33:55.550Z,20.87
2018-10-17T06:36:24.183Z,21.67
2018-10-17T06:38:52.788Z,21.87
2018-10-17T06:41:21.450Z,22.60
2018-10-17T06:43:50.229Z,20.10
2018-10-17T06:46:18.739Z,21.00
2018-10-17T06:48:47.348Z,22.47
2018-10-17T06:51:16.043Z,22.60
2018-10-17T06:53:44.735Z,22.30
2018-10-17T06:56:13.393Z,21.27
2018-10-17T06:58:42.061Z,22.33
2018-10-17T07:01:10.786Z,20.70
2018-10-17T07:03:39.396Z,20.27
2018-10-17T07:06:08.067Z,21.73
2018-10-17T07:08:36.796Z,20.60
2018-10-17T07:11:05.686Z,21.67
2018-10-17T07:13:34.346Z,21.80
2018-10-17T07:16:03.018Z,21.47
2018-10-17T07:18:31.732Z,21.40
2018-10-17T07:21:00.370Z,19.23
2018-10-17T07:23:28.986Z,19.90
2018-10-17T07:25:57.618Z,19.13
2018-10-17T07:28:26.303Z,20.50
2018-10-17T07:30:54.968Z,19.60
2018-10-17T07:33:23.647Z,21.50
2018-10-17T07:35:52.379Z,22.67
2018-10-17T07:38:21.003Z,22.32
2018-10-17T07:40:49.664Z,21.37
2018-10-17T07:43:18.322Z,21.35
2018-10-17T07:45:46.991Z,22.60
2018-10-17T07:48:15.685Z,19.70
2018-10-17T07:50:44.295Z,22.73
2018-10-17T07:53:12.971Z,20.20
2018-10-17T07:55:41.604Z,21.80
2018-10-17T07:58:10.251Z,21.57
2018-10-17T08:00:38.881Z,20.10
2018-10-17T08:03:07.557Z,20.47
2018-10-17T08:05:36.215Z,20.93
2018-10-17T08:08:04.953Z,21.77
2018-10-17T08:10:33.592Z,20.20
2018-10-17T08:13:02.221Z,20.50
2018-10-17T08:15:30.898Z,21.30
2018-10-17T08:17:59.583Z,20.63
2018-10-17T08:20:28.239Z,19.97
2018-10-17T08:22:56.880Z,19.30
2018-10-17T08:25:25.538Z,19.60
2018-10-17T08:27:54.221Z,21.40
2018-10-17T08:30:22.849Z,20.90
2018-10-17T08:32:51.525Z,19.97
2018-10-17T08:35:20.194Z,22.50
2018-10-17T08:37:49.407Z,21.27
2018-10-17T08:40:17.536Z,21.97
2018-10-17T08:42:46.208Z,20.63
2018-10-17T08:45:14.942Z,22.13
2018-10-17T08:47:43.506Z,20.47
2018-10-17T08:50:12.343Z,20.67
2018-10-17T08:52:40.913Z,20.80
2018-10-17T08:55:09.709Z,19.80
2018-10-17T08:57:38.381Z,20.93
2018-10-17T09:00:07.619Z,21.33
2018-10-17T09:02:36.299Z,19.23
2018-10-17T09:05:05.019Z,19.50
2018-10-17T09:07:33.668Z,21.00
2018-10-17T09:10:02.313Z,19.93
2018-10-17T09:12:30.985Z,20.07
2018-10-17T09:14:59.654Z,20.33
2018-10-17T09:17:28.272Z,20.53
2018-10-17T09:19:57.131Z,20.27
2018-10-17T09:22:25.876Z,19.87
2018-10-17T09:24:54.292Z,19.90
2018-10-17T09:27:22.969Z,19.67
2018-10-17T09:29:51.636Z,18.50
2018-10-17T09:32:20.363Z,18.33
2018-10-17T09:34:49.029Z,19.13
2018-10-17T09:37:17.738Z,18.30
2018-10-17T09:39:46.361Z,19.43
2018-10-17T09:42:15.061Z,18.50
2018-10-17T09:44:43.645Z,19.43
2018-10-17T09:47:12.277Z,18.63
2018-10-17T09:49:40.936Z,17.70
2018-10-17T09:52:09.639Z,19.40
2018-10-17T09:54:38.292Z,18.30
2018-10-17T09:57:06.990Z,17.33
2018-10-17T09:59:35.631Z,17.13
2018-10-17T10:02:04.728Z,16.73
2018-10-17T10:04:33.366Z,17.17
2018-10-17T10:07:02.017Z,16.17
2018-10-17T10:09:30.670Z,16.70
2018-10-17T10:11:59.369Z,17.33
2018-10-17T10:14:28.043Z,15.03
2018-10-17T10:16:56.785Z,16.00
2018-10-17T10:19:25.388Z,15.90
2018-10-17T10:21:54.913Z,15.53
2018-10-17T10:24:23.545Z,16.07
2018-10-17T10:26:52.163Z,15.37
2018-10-17T10:29:20.845Z,13.77
2018-10-17T10:31:49.471Z,15.00
2018-10-17T10:34:18.251Z,14.53
2018-10-17T10:36:46.786Z,13.77
2018-10-17T10:39:15.462Z,15.57
2018-10-17T10:41:44.203Z,15.30
2018-10-17T10:44:13.062Z,16.30
2018-10-17T10:46:41.597Z,14.40
2018-10-17T10:49:10.270Z,15.30
2018-10-17T10:51:39.018Z,15.47
2018-10-17T10:54:07.685Z,14.50
2018-10-17T10:56:36.714Z,15.00
2018-10-17T10:59:05.509Z,14.60
2018-10-17T11:01:34.173Z,14.47
2018-10-17T11:04:02.825Z,12.30
2018-10-17T11:06:31.526Z,13.80
2018-10-17T11:09:00.156Z,13.87
2018-10-17T11:11:28.913Z,12.93
2018-10-17T11:13:57.605Z,12.47
2018-10-17T11:16:26.708Z,12.50
2018-10-17T11:18:55.388Z,11.87
2018-10-17T11:21:24.280Z,13.80
2018-10-17T11:23:52.935Z,11.87
2018-10-17T11:26:21.587Z,13.17
2018-10-17T11:28:50.285Z,11.90
2018-10-17T11:31:19.028Z,12.13
2018-10-17T11:33:47.690Z,12.57
2018-10-17T11:36:16.328Z,11.70
2018-10-17T11:38:44.971Z,11.80
2018-10-17T11:41:13.706Z,11.80
2018-10-17T11:43:42.248Z,11.73
2018-10-17T11:46:10.918Z,11.27
2018-10-17T11:48:39.561Z,11.63
2018-10-17T11:51:08.369Z,12.20
2018-10-17T11:53:37.023Z,11.07
2018-10-17T11:56:05.791Z,12.10
2018-10-17T11:58:34.840Z,11.40
2018-10-17T12:01:03.516Z,10.53
2018-10-17T12:03:32.371Z,11.20
2018-10-17T12:06:01.058Z,11.37
2018-10-17T12:08:29.606Z,10.60
2018-10-17T12:10:58.255Z,10.53
2018-10-17T12:13:26.873Z,10.23
2018-10-17T12:15:55.565Z,11.53
2018-10-17T12:18:24.180Z,11.17
2018-10-17T12:20:52.942Z,11.70
2018-10-17T12:23:21.700Z,11.23
2018-10-17T12:25:50.364Z,9.67
2018-10-17T12:28:19.091Z,10.27
2018-10-17T12:30:47.742Z,10.70
2018-10-17T12:33:16.472Z,11.00
2018-10-17T12:35:45.076Z,10.60
2018-10-17T12:38:14.517Z,10.80
2018-10-17T12:40:43.548Z,11.10
2018-10-17T12:43:12.170Z,11.40
2018-10-17T12:45:40.851Z,10.57
2018-10-17T12:48:09.500Z,10.93
2018-10-17T12:50:38.224Z,10.87
2018-10-17T12:53:07.264Z,12.03
2018-10-17T12:55:35.885Z,11.80
2018-10-17T12:58:04.545Z,11.80
2018-10-17T13:00:33.184Z,11.40
2018-10-17T13:03:01.801Z,10.30
2018-10-17T13:05:30.579Z,10.80
2018-10-17T13:07:59.757Z,10.60
2018-10-17T13:10:28.659Z,11.07
2018-10-17T13:12:57.522Z,10.07
2018-10-17T13:15:26.095Z,8.90
2018-10-17T13:17:54.712Z,9.57
2018-10-17T13:20:23.392Z,10.50
2018-10-17T13:22:52.057Z,9.60
2018-10-17T13:25:20.684Z,8.67
2018-10-17T13:27:49.341Z,8.47
2018-10-17T13:30:18.000Z,9.10
2018-10-17T13:32:46.691Z,8.77
2018-10-17T13:35:15.410Z,8.30
2018-10-17T13:37:44.045Z,8.30
2018-10-17T13:40:12.787Z,8.80
2018-10-17T13:42:41.436Z,9.07
2018-10-17T13:45:10.240Z,9.43
2018-10-17T13:47:38.933Z,9.23
2018-10-17T13:50:09.413Z,9.33
2018-10-17T13:52:38.094Z,9.20
2018-10-17T13:55:07.263Z,9.60
2018-10-17T13:57:35.955Z,10.00
2018-10-17T14:00:05.393Z,8.37
2018-10-17T14:02:34.083Z,8.53
2018-10-17T14:05:02.761Z,8.60
2018-10-17T14:07:31.402Z,9.90
2018-10-17T14:10:00.055Z,9.43
2018-10-17T14:12:28.918Z,8.13
2018-10-17T14:14:57.581Z,7.97
2018-10-17T14:17:26.243Z,8.67
2018-10-17T14:19:54.912Z,7.83
2018-10-17T14:22:23.546Z,8.37
2018-10-17T14:24:52.208Z,8.07
2018-10-17T14:27:20.864Z,8.30
2018-10-17T14:29:49.513Z,10.70
2018-10-17T14:32:18.183Z,9.17
2018-10-17T14:34:46.875Z,8.80
2018-10-17T14:37:15.541Z,8.70
2018-10-17T14:39:45.201Z,8.80
2018-10-17T14:42:13.976Z,9.03
2018-10-17T14:44:42.565Z,9.37
2018-10-17T14:47:11.242Z,8.50
2018-10-17T14:49:39.880Z,9.27
2018-10-17T14:52:08.643Z,8.90
2018-10-17T14:54:37.285Z,8.77
2018-10-17T14:57:07.006Z,8.87
2018-10-17T14:59:35.674Z,8.50
2018-10-17T15:02:04.573Z,7.63
2018-10-17T15:04:33.197Z,8.97
2018-10-17T15:07:01.860Z,8.80
2018-10-17T15:09:30.520Z,8.20
2018-10-17T15:11:59.224Z,9.10
2018-10-17T15:14:27.853Z,9.20
2018-10-17T15:16:56.667Z,8.40
2018-10-17T15:19:25.331Z,8.90
2018-10-17T15:21:54.002Z,9.67
2018-10-17T15:24:22.672Z,9.97
2018-10-17T15:26:51.384Z,10.63
2018-10-17T15:29:20.041Z,9.63
2018-10-17T15:31:48.779Z,8.80
2018-10-17T15:34:17.386Z,9.93
2018-10-17T15:36:46.082Z,10.30
2018-10-17T15:39:24.957Z,10.37
2018-10-17T15:44:46.902Z,11.27
2018-10-17T15:47:15.568Z,10.70
2018-10-17T15:49:44.403Z,10.97
2018-10-17T15:52:13.045Z,10.53
2018-10-17T15:57:34.208Z,10.40
2018-10-17T16:00:02.947Z,9.70
2018-10-17T16:02:31.647Z,10.13
2018-10-17T16:05:00.281Z,10.23
2018-10-17T16:07:28.952Z,10.03
2018-10-17T16:09:57.636Z,9.73
2018-10-17T16:12:26.288Z,10.77
2018-10-17T16:14:54.953Z,10.27
2018-10-17T16:17:23.577Z,12.90
2018-10-17T16:19:52.225Z,11.70
2018-10-17T16:22:20.860Z,11.03
2018-10-17T16:24:49.564Z,10.67
2018-10-17T16:27:18.268Z,10.17
2018-10-17T16:29:46.957Z,10.93
2018-10-17T16:32:15.675Z,9.90
2018-10-17T16:34:44.303Z,10.50
2018-10-17T16:37:12.952Z,11.90
2018-10-17T16:39:41.660Z,11.40
2018-10-17T16:42:10.353Z,11.50
2018-10-17T16:44:38.976Z,11.30
2018-10-17T16:47:07.765Z,11.50
2018-10-17T16:49:36.483Z,11.20
2018-10-17T16:52:05.165Z,10.90
2018-10-17T16:54:33.924Z,11.17
2018-10-17T16:57:02.643Z,11.67
2018-10-17T16:59:31.312Z,12.10
2018-10-17T17:01:59.953Z,11.70
2018-10-17T17:04:28.737Z,11.20
2018-10-17T17:06:57.333Z,11.33
2018-10-17T17:09:26.020Z,11.40
2018-10-17T17:11:54.743Z,11.47
2018-10-17T17:14:23.464Z,11.70
2018-10-17T17:16:52.109Z,11.10
2018-10-17T17:19:20.797Z,11.90
2018-10-17T17:21:49.469Z,11.27
2018-10-17T17:24:18.124Z,10.40
2018-10-17T17:26:50.378Z,11.30
2018-10-17T17:29:19.056Z,10.50
2018-10-17T17:31:47.717Z,12.33
2018-10-17T17:34:16.565Z,11.90
2018-10-17T17:36:45.244Z,11.60
2018-10-17T17:39:13.897Z,12.80
2018-10-17T17:41:42.592Z,12.97
2018-10-17T17:44:11.284Z,12.70
2018-10-17T17:46:40.016Z,13.10
2018-10-17T17:49:08.788Z,12.80
2018-10-17T17:51:37.452Z,12.90
2018-10-17T17:54:06.256Z,13.37
2018-10-17T17:56:34.912Z,14.50
2018-10-17T17:59:03.611Z,14.97
2018-10-17T18:01:32.309Z,14.17
2018-10-17T18:04:01.068Z,13.60
2018-10-17T18:06:29.685Z,14.90
2018-10-17T18:08:58.321Z,14.40
2018-10-17T18:11:27.020Z,15.00
2018-10-17T18:13:56.726Z,14.50
2018-10-17T18:16:25.421Z,14.07
2018-10-17T18:18:54.081Z,15.60
2018-10-17T18:21:22.757Z,13.90
2018-10-17T18:23:51.420Z,14.80
2018-10-17T18:26:20.096Z,14.53
2018-10-17T18:28:50.799Z,14.40
2018-10-17T18:31:19.473Z,13.83
2018-10-17T18:33:48.182Z,14.83
2018-10-17T18:36:16.825Z,14.10
2018-10-17T18:38:45.507Z,14.27
2018-10-17T18:41:14.192Z,16.00
2018-10-17T18:43:42.864Z,14.97
2018-10-17T18:46:11.621Z,15.17
2018-10-17T18:48:40.386Z,14.37
2018-10-17T18:51:09.079Z,15.57
2018-10-17T18:53:37.860Z,15.10
2018-10-17T18:56:06.631Z,16.20
2018-10-17T18:58:35.268Z,15.10
2018-10-17T19:01:03.979Z,16.13
2018-10-17T19:03:32.626Z,15.83
2018-10-17T19:06:01.326Z,15.23
2018-10-17T19:08:30.001Z,15.90
2018-10-17T19:10:58.725Z,15.60
2018-10-17T19:13:27.385Z,15.50
2018-10-17T19:15:56.297Z,15.70
2018-10-17T19:18:24.932Z,15.60
2018-10-17T19:21:05.649Z,15.87
2018-10-17T19:23:34.313Z,15.30
2018-10-17T19:26:04.168Z,16.90
2018-10-17T19:28:32.844Z,16.73
2018-10-17T19:31:01.737Z,16.57
2018-10-17T19:33:49.347Z,17.60
2018-10-17T19:36:18.076Z,16.83
2018-10-17T19:38:46.742Z,17.53
2018-10-17T19:41:15.377Z,18.50
2018-10-17T19:43:44.074Z,16.10
2018-10-17T19:46:12.753Z,17.80
2018-10-17T19:48:41.440Z,17.03
2018-10-17T19:51:10.129Z,16.30
2018-10-17T19:53:38.825Z,17.40
2018-10-17T19:56:07.520Z,16.67
2018-10-17T19:58:36.179Z,17.17
2018-10-17T20:01:04.900Z,17.43
2018-10-17T20:03:33.617Z,17.77
2018-10-17T20:06:02.281Z,16.00
2018-10-17T20:08:31.067Z,17.43
2018-10-17T20:10:59.758Z,16.30
2018-10-17T20:13:28.416Z,18.03
2018-10-17T20:15:57.085Z,18.57
2018-10-17T20:18:25.796Z,17.43
2018-10-17T20:20:54.563Z,17.80
2018-10-17T20:23:23.253Z,17.50
2018-10-17T20:25:51.915Z,17.77
2018-10-17T20:28:20.623Z,17.87
2018-10-17T20:30:49.274Z,18.50
2018-10-17T20:33:18.016Z,19.20
2018-10-17T20:35:46.707Z,18.30
2018-10-17T20:38:15.458Z,18.20
2018-10-17T20:40:44.159Z,18.70
2018-10-17T20:43:12.843Z,17.50
2018-10-17T20:45:41.497Z,18.30
2018-10-17T20:48:10.174Z,18.20
2018-10-17T20:50:38.870Z,18.23
2018-10-17T20:53:07.564Z,18.47
2018-10-17T20:55:36.253Z,19.70
2018-10-17T20:58:05.177Z,17.57
2018-10-17T21:00:33.817Z,18.60
2018-10-17T21:03:02.493Z,19.80
2018-10-17T21:05:31.132Z,19.00
2018-10-17T21:07:59.811Z,19.40
2018-10-17T21:10:28.535Z,18.60
2018-10-17T21:12:57.221Z,19.50
2018-10-17T21:15:25.925Z,19.80
2018-10-17T21:17:54.591Z,19.80
2018-10-17T21:20:23.311Z,21.40
2018-10-17T21:22:51.968Z,19.67
2018-10-17T21:25:20.642Z,20.27
2018-10-17T21:27:49.326Z,18.97
2018-10-17T21:33:11.001Z,19.50
2018-10-17T21:35:39.681Z,19.60
2018-10-17T21:38:08.399Z,20.20
2018-10-17T21:40:37.103Z,20.10
2018-10-17T21:43:05.808Z,21.13
2018-10-17T21:45:40.879Z,20.80
2018-10-17T21:48:09.485Z,20.17
2018-10-17T21:50:38.131Z,19.40
2018-10-17T21:53:07.103Z,20.07
2018-10-17T21:55:35.769Z,19.70
2018-10-17T21:58:04.476Z,20.30
2018-10-17T22:00:33.225Z,20.43
2018-10-17T22:03:01.918Z,19.67
2018-10-17T22:05:30.590Z,20.20
2018-10-17T22:08:21.185Z,20.83
2018-10-17T22:10:49.854Z,22.50
2018-10-17T22:13:18.619Z,22.40
2018-10-17T22:15:47.321Z,21.40
2018-10-17T22:18:16.067Z,21.47
2018-10-17T22:20:44.749Z,20.77
2018-10-17T22:23:13.409Z,20.43
2018-10-17T22:25:42.124Z,21.07
2018-10-17T22:28:10.893Z,20.40
2018-10-17T22:30:39.564Z,20.37
2018-10-17T22:33:08.180Z,20.80
2018-10-17T22:35:36.841Z,20.83
2018-10-17T22:38:05.759Z,19.27
2018-10-17T22:40:34.351Z,20.50
2018-10-17T22:43:03.013Z,20.47
2018-10-17T22:45:31.657Z,20.40
2018-10-17T22:48:00.336Z,20.70
2018-10-17T22:50:28.999Z,21.63
2018-10-17T22:52:57.637Z,21.07
2018-10-17T22:55:26.368Z,20.40
2018-10-17T22:57:55.027Z,21.30
2018-10-17T23:00:23.700Z,22.30
2018-10-17T23:02:52.357Z,20.93
2018-10-17T23:05:22.095Z,20.70
2018-10-17T23:07:50.808Z,20.80
2018-10-17T23:10:19.512Z,20.37
2018-10-17T23:12:48.177Z,22.57
2018-10-17T23:15:17.001Z,22.60
2018-10-17T23:17:45.638Z,20.87
2018-10-17T23:20:14.364Z,22.07
2018-10-17T23:22:42.985Z,20.87
2018-10-17T23:25:12.299Z,21.77
2018-10-17T23:27:41.436Z,22.83
2018-10-17T23:30:20.345Z,20.80
2018-10-17T23:32:49.020Z,20.20
2018-10-17T23:35:17.660Z,21.33
2018-10-17T23:37:46.315Z,22.37
2018-10-17T23:40:14.933Z,20.47
2018-10-17T23:42:43.691Z,20.87
2018-10-17T23:45:12.264Z,21.00
2018-10-17T23:47:41.005Z,20.37
2018-10-17T23:50:09.798Z,21.03
2018-10-17T23:52:38.448Z,20.70
2018-10-17T23:58:00.254Z,20.97
